Time;durP1;ratioP1;P1;durP2;ratioP2;P2;SDS_P1;SDS_P2;PMS_P1;PMS_P2;Temp;Humidity;BMP_temperature;BMP_pressure;BME280_temperature;BME280_humidity;BME280_pressure;Samples;Min_cycle;Max_cycle;Signal;HPM_P1;HPM_P2
2024/04/06 00:01:23;;;;;;;3.88;1.67;;;12.70;99.90;;;12.21;100.00;100028.50;4152342;28;20034;-59
2024/04/06 00:03:23;;;;;;;3.47;1.80;;;12.70;99.90;;;12.26;100.00;100022.66;4152314;28;20389;-59
2024/04/06 00:05:24;;;;;;;6.82;2.28;;;12.70;99.90;;;12.36;100.00;100020.53;4152391;28;20036;-59
2024/04/06 00:07:26;;;;;;;5.68;1.80;;;12.90;99.90;;;12.38;100.00;100022.00;4152380;28;20030;-59
2024/04/06 00:09:27;;;;;;;4.93;2.22;;;12.90;99.90;;;12.45;100.00;100022.09;4152305;28;20087;-59
2024/04/06 00:11:28;;;;;;;5.50;2.25;;;12.90;99.90;;;12.43;100.00;100022.25;4152427;28;20428;-59
2024/04/06 00:13:28;;;;;;;5.75;2.60;;;13.00;99.90;;;12.44;100.00;100020.44;4151867;28;20086;-59
2024/04/06 00:15:29;;;;;;;9.55;3.20;;;13.00;99.90;;;12.45;100.00;100022.09;4152310;28;20100;-59
2024/04/06 00:17:32;;;;;;;6.72;1.90;;;13.00;99.90;;;12.45;100.00;100008.84;4155279;28;20460;-59
2024/04/06 00:19:33;;;;;;;4.18;1.90;;;13.00;99.90;;;12.51;100.00;100002.81;4155515;28;20022;-59
2024/04/06 00:21:34;;;;;;;6.68;2.42;;;13.10;99.90;;;12.53;100.00;100000.81;4155758;28;20021;-59
2024/04/06 00:23:34;;;;;;;8.48;2.10;;;13.10;99.90;;;12.61;100.00;99998.84;4157821;28;20022;-59
2024/04/06 00:25:35;;;;;;;7.45;3.05;;;13.10;99.90;;;12.72;100.00;99998.34;4153591;28;20076;-59
2024/04/06 00:27:36;;;;;;;6.20;2.72;;;13.20;99.90;;;12.83;100.00;99989.13;4139056;28;20023;-59
2024/04/06 00:29:37;;;;;;;5.20;2.05;;;13.30;99.90;;;12.89;100.00;99980.41;4139270;28;20034;-59
2024/04/06 00:31:38;;;;;;;6.30;2.38;;;13.40;99.90;;;12.88;100.00;99976.13;4139286;28;20487;-59
2024/04/06 00:33:38;;;;;;;3.08;1.98;;;13.40;99.90;;;12.90;100.00;99984.72;4144349;28;20072;-59
2024/04/06 00:35:39;;;;;;;7.10;2.47;;;13.50;99.90;;;12.95;100.00;99987.59;4147316;28;20030;-59
2024/04/06 00:37:40;;;;;;;5.55;2.40;;;13.50;99.90;;;13.06;100.00;99978.31;4139103;28;20038;-59
2024/04/06 00:39:41;;;;;;;6.40;2.75;;;13.50;99.90;;;13.36;100.00;99971.88;4139160;28;20022;-59
2024/04/06 00:41:42;;;;;;;5.45;2.10;;;13.70;99.90;;;13.30;100.00;99960.22;4139088;28;20026;-59
2024/04/06 00:43:43;;;;;;;9.02;2.72;;;13.80;99.90;;;13.39;100.00;99968.03;4144745;28;20018;-59
2024/04/06 00:45:43;;;;;;;4.32;2.00;;;13.90;99.90;;;13.37;100.00;99960.28;4142114;28;20034;-59
2024/04/06 00:47:44;;;;;;;5.05;2.50;;;13.90;99.90;;;13.38;100.00;99943.34;4142302;28;20089;-59
2024/04/06 00:49:45;;;;;;;6.70;2.55;;;13.90;99.90;;;13.48;100.00;99938.53;4148385;28;20034;-59
2024/04/06 00:51:46;;;;;;;6.55;2.85;;;14.00;99.90;;;13.49;100.00;99944.66;4139047;28;20030;-59
2024/04/06 00:53:47;;;;;;;5.25;2.20;;;14.00;99.90;;;13.48;100.00;99935.06;4145701;28;20021;-59
2024/04/06 00:55:48;;;;;;;6.00;3.10;;;14.10;99.90;;;13.52;100.00;99929.22;4153579;28;20032;-59
2024/04/06 00:57:49;;;;;;;2.85;2.20;;;14.10;99.90;;;13.54;100.00;99923.69;4153549;28;20038;-59
2024/04/06 00:59:50;;;;;;;11.30;3.50;;;14.10;99.90;;;13.51;100.00;99919.63;4155132;28;20488;-59
2024/04/06 01:01:51;;;;;;;5.75;2.28;;;14.10;99.90;;;13.66;100.00;99916.84;4154965;28;20033;-59
2024/04/06 01:03:52;;;;;;;4.93;2.53;;;14.10;99.90;;;13.74;100.00;99928.09;4153544;28;20030;-59
2024/04/06 01:05:53;;;;;;;6.13;2.97;;;14.20;99.90;;;13.84;100.00;99925.91;4138735;28;20022;-59
2024/04/06 01:07:53;;;;;;;6.95;2.60;;;14.30;99.90;;;13.82;100.00;99922.66;4138664;28;20548;-59
2024/04/06 01:09:55;;;;;;;6.68;2.92;;;14.40;99.90;;;13.96;100.00;99935.94;4138536;28;20030;-59
2024/04/06 01:11:55;;;;;;;7.22;2.95;;;14.40;99.90;;;14.03;100.00;99934.97;4138525;28;20036;-59
2024/04/06 01:13:56;;;;;;;4.53;2.47;;;14.50;99.90;;;14.11;100.00;99926.03;4144134;28;20017;-59
2024/04/06 01:15:57;;;;;;;7.10;2.50;;;14.60;99.90;;;14.13;100.00;99927.44;4154530;28;20084;-59
2024/04/06 01:17:58;;;;;;;7.00;2.38;;;14.70;99.90;;;14.09;100.00;99923.59;4138427;28;20037;-59
2024/04/06 01:19:59;;;;;;;6.38;2.90;;;14.60;99.90;;;14.15;100.00;99921.97;4142658;28;20034;-59
2024/04/06 01:22:00;;;;;;;6.93;2.13;;;14.70;99.90;;;14.18;100.00;99933.00;4138503;28;20485;-59
2024/04/06 01:24:28;;;;;;;6.30;1.95;;;14.70;99.90;;;14.10;100.00;99922.53;4148061;28;20033;-59
2024/04/06 01:26:29;;;;;;;7.05;2.58;;;14.70;99.90;;;14.08;100.00;99915.81;4151669;28;20494;-59
2024/04/06 01:28:30;;;;;;;6.13;2.65;;;14.70;99.90;;;14.02;100.00;99917.41;4154475;28;20030;-59
2024/04/06 01:30:31;;;;;;;6.32;2.42;;;14.60;99.90;;;14.08;100.00;99918.47;4154618;28;20374;-59
2024/04/06 01:32:32;;;;;;;4.32;2.78;;;14.70;99.90;;;14.06;100.00;99907.25;4154527;28;20109;-59
2024/04/06 01:34:33;;;;;;;5.35;2.20;;;14.60;99.90;;;14.11;100.00;99902.97;4160983;28;20022;-59
2024/04/06 01:36:34;;;;;;;7.97;2.53;;;14.60;99.90;;;14.13;100.00;99900.09;4138469;28;20038;-59
2024/04/06 01:38:34;;;;;;;6.88;2.10;;;14.70;99.90;;;14.12;100.00;99896.66;4138184;28;20041;-59
2024/04/06 01:40:35;;;;;;;8.07;3.17;;;14.60;99.90;;;14.14;100.00;99899.91;4138190;28;20034;-59
2024/04/06 01:42:36;;;;;;;5.78;2.70;;;14.70;99.90;;;14.27;100.00;99888.53;4137767;28;20030;-59
2024/04/06 01:44:37;;;;;;;5.88;2.72;;;14.70;99.90;;;14.23;100.00;99893.41;4149001;28;20485;-59
2024/04/06 01:46:38;;;;;;;5.38;2.17;;;14.80;99.90;;;14.23;100.00;99892.59;4138037;28;20042;-59
2024/04/06 01:48:39;;;;;;;6.88;2.30;;;14.80;99.90;;;14.21;100.00;99887.50;4149158;28;20037;-59
2024/04/06 01:50:40;;;;;;;5.88;2.50;;;14.80;99.90;;;14.25;100.00;99886.06;4154913;28;20057;-59
2024/04/06 01:52:41;;;;;;;4.00;2.25;;;14.80;99.90;;;14.21;100.00;99870.78;4138046;28;20548;-59
2024/04/06 01:54:42;;;;;;;6.07;2.22;;;14.80;99.90;;;14.17;100.00;99873.00;4148733;28;20443;-59
2024/04/06 01:56:45;;;;;;;6.25;2.38;;;14.80;99.90;;;14.15;100.00;99864.44;4153951;28;20030;-59
2024/04/06 01:58:46;;;;;;;8.07;2.30;;;14.70;99.90;;;14.26;100.00;99868.31;4153712;28;20042;-59
2024/04/06 02:00:47;;;;;;;7.55;2.60;;;14.70;99.90;;;14.33;100.00;99866.53;4147420;28;20034;-59
2024/04/06 02:02:48;;;;;;;12.70;2.78;;;14.80;99.90;;;14.36;100.00;99861.66;4138055;28;20026;-59
2024/04/06 02:04:49;;;;;;;7.88;2.60;;;14.90;99.90;;;14.35;100.00;99857.34;4159129;28;20045;-59
2024/04/06 02:06:50;;;;;;;8.00;2.50;;;14.90;99.90;;;14.45;100.00;99850.84;4142311;28;20022;-59
2024/04/06 02:08:51;;;;;;;5.13;2.08;;;14.90;99.90;;;14.50;100.00;99845.72;4137835;28;20398;-59
2024/04/06 02:10:52;;;;;;;8.48;2.53;;;15.00;99.90;;;14.50;100.00;99845.72;4137770;28;20026;-59
2024/04/06 02:12:54;;;;;;;8.35;3.17;;;15.00;99.90;;;14.50;100.00;99845.72;4137436;28;20026;-59
2024/04/06 02:14:55;;;;;;;5.03;2.55;;;15.00;99.90;;;14.51;100.00;99848.19;4159127;28;20025;-59
2024/04/06 02:16:56;;;;;;;7.75;2.88;;;15.10;99.90;;;14.55;100.00;99851.25;4137629;28;20509;-59
2024/04/06 02:18:57;;;;;;;6.72;2.03;;;15.00;99.90;;;14.57;100.00;99843.91;4137588;28;20027;-59
2024/04/06 02:20:57;;;;;;;9.98;3.13;;;15.10;99.90;;;14.56;100.00;99840.44;4137730;28;20026;-59
2024/04/06 02:22:58;;;;;;;8.60;3.05;;;15.10;99.90;;;14.49;100.00;99830.81;4137403;28;20022;-59
2024/04/06 02:24:59;;;;;;;7.65;3.08;;;15.00;99.90;;;14.49;100.00;99828.16;4154264;28;20093;-59
2024/04/06 02:27:00;;;;;;;5.97;2.25;;;15.00;99.90;;;14.48;100.00;99823.91;4137519;28;20034;-59
2024/04/06 02:29:01;;;;;;;8.50;2.65;;;15.00;99.90;;;14.46;100.00;99821.44;4137227;28;20027;-59
2024/04/06 02:31:03;;;;;;;8.10;3.50;;;15.00;99.90;;;14.48;100.00;99816.75;4137402;28;20022;-59
2024/04/06 02:33:05;;;;;;;6.15;1.80;;;15.00;99.90;;;14.42;100.00;99811.44;4137596;28;20553;-59
2024/04/06 02:35:06;;;;;;;7.63;2.28;;;15.00;99.90;;;14.49;100.00;99793.66;4148505;28;20374;-59
2024/04/06 02:37:07;;;;;;;6.45;2.00;;;15.00;99.90;;;14.43;100.00;99797.13;4137150;28;20081;-59
2024/04/06 02:39:10;;;;;;;6.00;2.30;;;15.00;99.90;;;14.35;100.00;99788.38;4136676;28;20034;-59
2024/04/06 02:41:11;;;;;;;4.68;2.10;;;15.00;99.90;;;14.34;100.00;99793.88;4137509;28;20030;-59
2024/04/06 02:43:11;;;;;;;5.93;2.75;;;14.90;99.90;;;14.38;100.00;99790.63;4137147;28;20029;-59
2024/04/06 02:45:12;;;;;;;4.97;2.05;;;14.90;99.90;;;14.35;100.00;99788.38;4142683;28;20030;-59
2024/04/06 02:47:13;;;;;;;4.57;2.30;;;14.90;99.90;;;14.38;100.00;99790.63;4136961;28;20130;-59
2024/04/06 02:49:14;;;;;;;5.75;2.53;;;14.90;99.90;;;14.60;100.00;99787.78;4150221;28;20076;-59
2024/04/06 02:51:16;;;;;;;7.38;2.25;;;15.00;99.90;;;14.60;100.00;99785.13;4137177;28;20035;-59
2024/04/06 02:53:17;;;;;;;7.65;2.13;;;15.10;99.90;;;14.61;100.00;99784.06;4137230;28;20453;-59
2024/04/06 02:55:18;;;;;;;9.32;2.28;;;15.20;99.90;;;14.57;100.00;99789.00;4150011;28;20026;-59
2024/04/06 02:57:18;;;;;;;6.90;2.15;;;15.10;99.90;;;14.55;100.00;99780.41;4153046;28;20038;-59
2024/04/06 02:59:20;;;;;;;8.30;2.05;;;15.10;99.90;;;14.47;100.00;99769.19;4153263;28;20030;-59
2024/04/06 03:01:20;;;;;;;7.80;2.53;;;15.10;99.90;;;14.48;100.00;99765.53;4153350;28;20036;-59
2024/04/06 03:03:21;;;;;;;6.82;2.13;;;15.10;99.90;;;14.40;100.00;99767.34;4153126;28;20465;-59
2024/04/06 03:05:22;;;;;;;8.65;2.20;;;15.00;99.90;;;14.39;100.00;99764.91;4163011;28;20108;-59
2024/04/06 03:07:23;;;;;;;7.38;1.83;;;15.00;99.90;;;14.40;100.00;99755.91;4136935;28;20036;-59
2024/04/06 03:09:24;;;;;;;5.93;1.75;;;15.00;99.90;;;14.34;100.00;99760.22;4136877;28;20031;-59
2024/04/06 03:11:25;;;;;;;6.13;1.60;;;14.90;99.90;;;14.32;100.00;99759.59;4158554;28;20041;-59
2024/04/06 03:13:25;;;;;;;5.43;1.90;;;14.90;99.90;;;14.29;100.00;99764.47;4139455;28;20019;-59
2024/04/06 03:15:26;;;;;;;12.48;2.72;;;14.90;99.90;;;14.29;100.00;99759.97;4156217;28;20030;-59
2024/04/06 03:17:27;;;;;;;7.70;2.28;;;14.90;99.90;;;14.31;100.00;99760.59;4136667;28;20022;-59
2024/04/06 03:19:28;;;;;;;7.22;2.30;;;14.90;99.90;;;14.38;100.00;99755.31;4136554;28;20080;-59
2024/04/06 03:21:29;;;;;;;3.97;2.20;;;14.90;99.90;;;14.37;100.00;99757.16;4136687;28;20084;-59
2024/04/06 03:23:30;;;;;;;6.50;1.90;;;14.90;99.90;;;14.39;100.00;99763.06;4136702;28;20030;-59
2024/04/06 03:25:33;;;;;;;2.70;1.73;;;14.90;99.90;;;14.50;100.00;99753.69;4156291;28;20029;-59
2024/04/06 03:27:34;;;;;;;7.43;2.00;;;15.00;99.90;;;14.46;100.00;99752.44;4146793;28;20101;-59
2024/04/06 03:29:35;;;;;;;9.70;2.10;;;15.00;99.90;;;14.49;100.00;99751.22;4136571;28;20277;-59
2024/04/06 03:31:35;;;;;;;4.68;2.15;;;15.00;99.90;;;14.49;100.00;99737.94;4136727;28;20030;-59
2024/04/06 03:33:36;;;;;;;4.85;2.33;;;15.00;99.90;;;14.46;100.00;99727.75;4136685;28;20064;-59
2024/04/06 03:35:37;;;;;;;8.80;2.10;;;15.00;99.90;;;14.40;100.00;99718.78;4146247;28;20413;-59
2024/04/06 03:37:38;;;;;;;4.45;1.80;;;15.00;99.90;;;14.35;100.00;99714.09;4136240;28;20490;-59
2024/04/06 03:39:39;;;;;;;7.68;1.98;;;14.90;99.90;;;14.52;100.00;99708.34;4136453;28;20041;-59
2024/04/06 03:41:39;;;;;;;5.70;2.17;;;15.00;99.90;;;14.57;100.00;99719.19;4136497;28;20022;-59
2024/04/06 03:43:40;;;;;;;9.43;2.17;;;15.00;99.90;;;14.65;100.00;99722.44;4136189;28;20033;-59
2024/04/06 03:45:43;;;;;;;7.38;1.50;;;15.20;99.90;;;14.63;100.00;99713.88;4141417;28;20018;-59
2024/04/06 03:47:44;;;;;;;4.88;1.70;;;15.10;99.90;;;14.57;100.00;99708.56;4139587;28;20050;-59
2024/04/06 03:49:46;;;;;;;6.45;1.75;;;15.20;99.90;;;14.50;100.00;99713.88;4145624;28;20048;-59
2024/04/06 03:51:47;;;;;;;5.55;1.92;;;15.10;99.90;;;14.56;100.00;99722.84;4135589;28;20026;-59
2024/04/06 03:53:48;;;;;;;5.38;2.05;;;15.10;99.90;;;14.55;100.00;99713.25;4137282;28;20030;-59
2024/04/06 03:55:49;;;;;;;5.60;1.77;;;15.10;99.90;;;14.50;100.00;99707.75;4150960;28;20378;-59
2024/04/06 03:57:49;;;;;;;4.20;1.70;;;15.10;99.90;;;14.55;100.00;99700.78;4152064;28;20559;-59
2024/04/06 03:59:50;;;;;;;4.32;1.83;;;15.10;99.90;;;14.63;100.00;99697.13;4152398;28;20499;-59
2024/04/06 04:01:51;;;;;;;6.13;1.95;;;15.20;99.90;;;14.72;100.00;99686.06;4151189;28;20077;-59
2024/04/06 04:03:52;;;;;;;4.75;1.60;;;15.20;99.90;;;14.66;100.00;99691.41;4153503;28;20038;-59
2024/04/06 04:05:53;;;;;;;6.03;2.45;;;15.20;99.90;;;14.67;100.00;99685.84;4156576;28;20039;-59
2024/04/06 04:07:54;;;;;;;5.72;1.33;;;15.20;99.90;;;14.60;100.00;99676.28;4136096;28;20026;-59
2024/04/06 04:09:54;;;;;;;6.53;1.40;;;15.20;99.90;;;14.52;100.00;99666.69;4148439;28;20030;-59
2024/04/06 04:11:55;;;;;;;5.65;1.77;;;15.10;99.90;;;14.50;100.00;99666.09;4152215;28;20068;-59
2024/04/06 04:13:56;;;;;;;6.45;1.50;;;15.10;99.90;;;14.48;100.00;99652.25;4153626;28;20029;-59
2024/04/06 04:15:58;;;;;;;5.68;1.77;;;15.00;99.90;;;14.49;100.00;99661.00;4151436;28;20030;-59
2024/04/06 04:17:58;;;;;;;6.05;1.95;;;15.00;99.90;;;14.62;100.00;99655.66;4136057;28;20031;-59
2024/04/06 04:20:01;;;;;;;5.80;1.85;;;15.10;99.90;;;14.65;100.00;99664.03;4135884;28;20445;-59
2024/04/06 04:22:02;;;;;;;6.80;1.38;;;15.10;99.90;;;14.67;100.00;99682.38;4136037;28;20031;-59
2024/04/06 04:24:03;;;;;;;10.98;1.70;;;15.10;99.90;;;14.93;100.00;99666.41;4135997;28;20375;-59
2024/04/06 04:26:04;;;;;;;5.82;2.00;;;15.30;99.90;;;14.86;100.00;99670.91;4136099;28;20026;-59
2024/04/06 04:28:05;;;;;;;5.72;1.58;;;15.30;99.90;;;14.79;100.00;99678.88;4135773;28;20541;-59
2024/04/06 04:30:07;;;;;;;5.38;1.60;;;15.30;99.90;;;14.80;100.00;99682.38;4136181;28;20367;-59
2024/04/06 04:32:08;;;;;;;3.30;1.63;;;15.30;99.90;;;14.86;100.00;99692.16;4135968;28;20084;-59
2024/04/06 04:34:09;;;;;;;3.70;1.63;;;15.30;99.90;;;14.92;100.00;99702.75;4135831;28;20030;-59
2024/04/06 04:36:13;;;;;;;4.53;1.52;;;15.40;99.90;;;14.99;100.00;99694.78;4135894;28;20033;-59
2024/04/06 04:38:14;;;;;;;8.60;1.60;;;15.40;99.90;;;15.13;100.00;99695.53;4135645;28;20044;-59
2024/04/06 04:40:15;;;;;;;3.55;1.33;;;15.50;99.90;;;15.12;100.00;99688.56;4135860;28;20034;-60
2024/04/06 04:42:16;;;;;;;7.15;1.50;;;15.60;99.90;;;15.18;100.00;99693.88;4135605;28;20074;-60
2024/04/06 04:44:17;;;;;;;5.20;1.45;;;15.60;99.90;;;15.31;100.00;99691.16;4135849;28;20022;-60
2024/04/06 04:46:18;;;;;;;3.65;1.63;;;15.70;99.90;;;15.22;100.00;99691.59;4143104;28;20034;-60
2024/04/06 04:48:19;;;;;;;4.13;1.40;;;15.70;99.90;;;15.14;100.00;99687.31;4144163;28;20033;-59
2024/04/06 04:50:20;;;;;;;3.45;1.20;;;15.70;99.90;;;15.06;100.00;99695.53;4140318;28;20081;-59
2024/04/06 04:52:21;;;;;;;4.88;1.70;;;15.70;99.90;;;15.08;100.00;99690.03;4135694;28;20026;-59
2024/04/06 04:54:22;;;;;;;7.28;1.45;;;15.60;99.90;;;15.06;100.00;99694.72;4139013;28;20026;-60
2024/04/06 04:56:23;;;;;;;5.72;1.63;;;15.60;99.90;;;15.01;100.00;99678.63;4152154;28;20033;-59
2024/04/06 04:58:24;;;;;;;5.90;1.70;;;15.60;99.90;;;14.90;100.00;99677.44;4151693;28;20037;-59
2024/04/06 05:00:24;;;;;;;5.68;1.15;;;15.50;99.90;;;14.79;100.00;99683.38;4151903;28;20025;-60
2024/04/06 05:02:25;;;;;;;5.03;1.88;;;15.40;99.90;;;14.71;100.00;99680.97;4153134;28;20026;-59
2024/04/06 05:04:26;;;;;;;5.15;1.45;;;15.30;99.90;;;14.74;100.00;99684.03;4155050;28;20026;-60
2024/04/06 05:06:27;;;;;;;6.22;1.73;;;15.30;99.90;;;14.75;100.00;99685.66;4154959;28;20588;-59
2024/04/06 05:08:29;;;;;;;4.60;1.33;;;15.30;99.90;;;14.83;100.00;99676.63;4154980;28;20026;-59
2024/04/06 05:10:30;;;;;;;6.07;1.98;;;15.30;99.90;;;15.03;100.00;99681.88;4155004;28;20475;-59
2024/04/06 05:12:30;;;;;;;5.45;1.70;;;15.40;99.90;;;15.03;100.00;99690.66;4154830;28;20037;-59
2024/04/06 05:14:31;;;;;;;5.68;1.50;;;15.50;99.90;;;15.05;100.00;99690.47;4154885;28;20033;-59
2024/04/06 05:16:32;;;;;;;5.72;1.48;;;15.50;99.90;;;15.02;100.00;99681.06;4154868;28;20084;-59
2024/04/06 05:18:33;;;;;;;5.35;1.83;;;15.50;99.90;;;15.00;100.00;99683.09;4159482;28;20040;-59
2024/04/06 05:20:34;;;;;;;5.53;1.55;;;15.50;99.90;;;15.05;100.00;99683.31;4138535;28;20027;-59
2024/04/06 05:22:34;;;;;;;3.25;1.65;;;15.50;99.90;;;14.93;100.00;99699.06;4138650;28;20030;-59
2024/04/06 05:24:35;;;;;;;3.90;1.52;;;15.50;99.90;;;14.82;100.00;99696.22;4138342;28;20038;-60
2024/04/06 05:26:37;;;;;;;4.82;1.83;;;15.40;99.90;;;14.76;100.00;99697.06;4138718;28;20041;-59
2024/04/06 05:28:37;;;;;;;11.30;1.55;;;15.30;99.90;;;14.68;100.00;99700.78;4138322;28;20029;-59
2024/04/06 05:30:38;;;;;;;2.97;1.20;;;15.30;99.90;;;14.64;100.00;99704.03;4138545;28;20034;-59
2024/04/06 05:32:40;;;;;;;5.43;2.13;;;15.20;99.90;;;14.62;100.00;99695.47;4138330;28;20022;-59
2024/04/06 05:34:40;;;;;;;4.55;1.73;;;15.20;99.90;;;14.70;100.00;99701.38;4138455;28;20375;-59
2024/04/06 05:36:41;;;;;;;4.47;1.50;;;15.20;99.90;;;14.71;100.00;99721.59;4138379;28;20093;-59
2024/04/06 05:38:43;;;;;;;5.22;1.55;;;15.20;99.90;;;14.68;100.00;99721.19;4138273;28;20081;-59
2024/04/06 05:40:45;;;;;;;1.63;0.90;;;15.20;99.90;;;14.63;100.00;99721.81;4156290;28;20026;-59
2024/04/06 05:42:46;;;;;;;5.10;1.35;;;15.20;99.90;;;14.60;100.00;99730.19;4138194;28;20101;-59
2024/04/06 05:44:48;;;;;;;4.10;1.27;;;15.10;99.90;;;14.58;100.00;99737.53;4138228;28;20036;-59
2024/04/06 05:46:49;;;;;;;5.53;1.60;;;15.10;99.90;;;14.54;100.00;99736.34;4138078;28;20425;-59
2024/04/06 05:48:50;;;;;;;4.18;1.50;;;15.10;99.90;;;14.50;100.00;99739.59;4150639;28;20041;-59
2024/04/06 05:50:50;;;;;;;4.53;1.30;;;15.00;99.90;;;14.54;100.00;99743.47;4143721;28;20025;-59
2024/04/06 05:52:51;;;;;;;6.38;1.38;;;15.10;99.90;;;14.59;100.00;99748.97;4138229;28;20026;-59
2024/04/06 05:54:52;;;;;;;6.00;1.95;;;15.10;99.90;;;14.55;100.00;99739.78;4145195;28;20554;-59
2024/04/06 05:56:53;;;;;;;5.32;1.30;;;15.10;99.90;;;14.58;100.00;99742.03;4154200;28;20422;-59
2024/04/06 05:58:54;;;;;;;5.30;1.23;;;15.10;99.90;;;14.56;100.00;99734.28;4153864;28;20547;-59
2024/04/06 06:00:54;;;;;;;6.53;1.70;;;15.10;99.90;;;14.58;100.00;99734.06;4149144;28;20026;-59
2024/04/06 06:02:56;;;;;;;4.10;1.58;;;15.10;99.90;;;14.76;100.00;99745.69;4138003;28;20022;-59
2024/04/06 06:04:57;;;;;;;5.78;1.38;;;15.10;99.90;;;14.79;100.00;99794.88;4137953;28;20030;-59
2024/04/06 06:06:57;;;;;;;10.43;1.40;;;15.20;99.90;;;15.04;100.00;99891.50;4137743;28;20037;-59
2024/04/06 06:08:58;;;;;;;5.75;1.77;;;15.40;99.90;;;15.27;100.00;99891.88;4137873;28;20031;-59
2024/04/06 06:10:59;;;;;;;4.70;1.30;;;15.60;99.90;;;15.48;100.00;99889.00;4149942;28;20099;-59
2024/04/06 06:13:00;;;;;;;4.90;1.33;;;15.70;99.90;;;15.48;100.00;99898.81;4158520;28;20501;-59
2024/04/06 06:15:02;;;;;;;3.92;1.40;;;15.90;99.90;;;15.44;100.00;99894.94;4153136;28;20023;-59
2024/04/06 06:17:03;;;;;;;10.85;2.88;;;15.90;99.90;;;15.75;100.00;99920.81;4153871;28;20064;-59
2024/04/06 06:19:04;;;;;;;13.93;3.72;;;16.10;99.90;;;15.69;100.00;99946.41;4153813;28;20109;-59
2024/04/06 06:21:05;;;;;;;15.85;3.35;;;16.10;99.90;;;15.70;100.00;99917.97;4160297;28;20032;-59
2024/04/06 06:23:06;;;;;;;21.10;4.63;;;16.10;99.90;;;15.66;100.00;99943.34;4141207;28;20093;-59
2024/04/06 06:25:08;;;;;;;24.63;5.53;;;16.10;99.90;;;15.48;100.00;99954.63;4137600;28;20018;-59
2024/04/06 06:27:09;;;;;;;25.85;5.32;;;16.00;99.90;;;15.36;100.00;99898.59;4137459;28;20030;-59
2024/04/06 06:29:10;;;;;;;19.50;5.57;;;16.00;99.90;;;15.35;100.00;99958.06;4146346;28;20035;-59
2024/04/06 06:31:11;;;;;;;20.52;5.30;;;15.90;99.90;;;15.28;100.00;99951.97;4149869;28;20030;-59
2024/04/06 06:33:12;;;;;;;27.25;6.05;;;15.80;99.90;;;15.30;100.00;99957.88;4137629;28;20027;-59
2024/04/06 06:35:12;;;;;;;25.92;5.15;;;15.80;99.90;;;15.29;100.00;99937.66;4137462;28;20119;-58
2024/04/06 06:37:13;;;;;;;21.85;5.22;;;15.80;99.90;;;15.28;100.00;99930.72;4137245;28;20018;-59
2024/04/06 06:39:15;;;;;;;19.83;4.50;;;15.80;99.90;;;15.30;100.00;99941.13;4137318;28;20446;-59
2024/04/06 06:41:16;;;;;;;24.15;4.40;;;15.80;99.90;;;15.31;100.00;99953.41;4145031;28;20037;-59
2024/04/06 06:43:16;;;;;;;32.28;6.72;;;15.80;99.90;;;15.31;100.00;99959.53;4135608;28;20517;-59
2024/04/06 06:45:17;;;;;;;22.92;6.25;;;15.80;99.90;;;15.36;100.00;99966.88;4137232;28;20030;-59
2024/04/06 06:47:18;;;;;;;29.65;6.05;;;15.80;99.90;;;15.36;100.00;99970.34;4136916;28;20112;-59
2024/04/06 06:49:19;;;;;;;23.42;5.65;;;15.90;99.90;;;15.49;100.00;99970.38;4149931;28;20026;-59
2024/04/06 06:51:20;;;;;;;21.13;5.22;;;15.90;99.90;;;15.49;100.00;99967.72;4140195;28;20034;-59
2024/04/06 06:53:20;;;;;;;18.65;4.55;;;15.90;99.90;;;15.45;100.00;99969.13;4137038;28;20030;-59
2024/04/06 06:55:21;;;;;;;27.00;5.25;;;16.00;99.90;;;15.48;100.00;99955.44;4148126;28;20046;-59
2024/04/06 06:57:22;;;;;;;17.92;5.30;;;16.00;99.90;;;15.47;100.00;99961.78;4151569;28;20068;-59
2024/04/06 06:59:23;;;;;;;29.40;5.43;;;15.90;99.90;;;15.42;100.00;99968.72;4153255;28;20026;-59
2024/04/06 07:01:24;;;;;;;19.73;5.03;;;15.90;99.90;;;15.37;100.00;99958.72;4161760;28;20021;-59
2024/04/06 07:03:27;;;;;;;19.48;3.83;;;15.90;99.90;;;15.35;100.00;99978.53;4144004;28;20500;-59
2024/04/06 07:05:27;;;;;;;24.48;5.45;;;15.90;99.90;;;15.28;100.00;99959.94;4136709;28;20019;-60
2024/04/06 07:07:28;;;;;;;20.30;5.53;;;15.90;99.90;;;15.33;100.00;99960.13;4136888;28;20045;-60
2024/04/06 07:09:29;;;;;;;27.48;5.95;;;15.90;99.90;;;15.33;100.00;99968.09;4149594;28;20037;-59
2024/04/06 07:11:30;;;;;;;25.25;5.82;;;15.90;99.90;;;15.31;100.00;99959.53;4162271;28;20061;-60
2024/04/06 07:13:31;;;;;;;25.33;6.10;;;15.80;99.90;;;15.25;100.00;99960.34;4137336;28;20026;-60
2024/04/06 07:15:32;;;;;;;27.75;5.97;;;15.80;99.90;;;15.27;100.00;99958.28;4136774;28;20038;-60
2024/04/06 07:17:33;;;;;;;34.65;7.75;;;15.70;99.90;;;15.23;100.00;99962.38;4136673;28;20035;-59
2024/04/06 07:19:34;;;;;;;20.65;6.28;;;15.80;99.90;;;15.19;100.00;99957.69;4136655;28;20405;-60
2024/04/06 07:21:35;;;;;;;28.77;6.60;;;15.70;99.90;;;15.18;100.00;99956.88;4151402;28;20025;-59
2024/04/06 07:23:37;;;;;;;20.52;5.55;;;15.70;99.90;;;15.18;100.00;99970.16;4136958;28;20032;-59
2024/04/06 07:25:37;;;;;;;30.58;6.10;;;15.70;99.90;;;15.18;100.00;99978.13;4136501;28;20038;-59
2024/04/06 07:27:38;;;;;;;24.73;5.53;;;15.70;99.90;;;15.13;100.00;99969.97;4136382;28;20030;-59
2024/04/06 07:29:40;;;;;;;21.55;5.72;;;15.70;99.90;;;15.11;100.00;99972.00;4151528;28;20021;-59
2024/04/06 07:31:41;;;;;;;24.60;5.20;;;15.70;99.90;;;15.08;100.00;99975.06;4146485;28;20110;-59
2024/04/06 07:33:41;;;;;;;30.95;5.95;;;15.60;99.90;;;15.09;100.00;99978.53;4136341;28;20030;-59
2024/04/06 07:35:45;;;;;;;24.58;6.03;;;15.60;99.90;;;15.11;100.00;99987.13;4136474;28;20030;-59
2024/04/06 07:37:46;;;;;;;27.40;7.00;;;15.60;99.90;;;15.09;100.00;100010.41;4136425;28;20112;-60
2024/04/06 07:39:47;;;;;;;30.65;5.47;;;15.60;99.90;;;15.10;100.00;100007.56;4136499;28;20494;-60
2024/04/06 07:41:47;;;;;;;27.40;5.72;;;15.60;99.90;;;15.11;100.00;100025.13;4141226;28;20504;-60
2024/04/06 07:43:48;;;;;;;27.75;6.32;;;15.60;99.90;;;15.15;100.00;100029.00;4149432;28;20132;-60
2024/04/06 07:45:49;;;;;;;24.88;6.43;;;15.60;99.90;;;15.15;100.00;100022.88;4152473;28;20037;-59
2024/04/06 07:47:51;;;;;;;30.05;7.03;;;15.70;99.90;;;15.16;100.00;100025.34;4152352;28;20104;-60
2024/04/06 07:49:52;;;;;;;29.45;7.13;;;15.70;99.90;;;15.17;100.00;100028.81;4144792;28;20065;-59
2024/04/06 07:51:53;;;;;;;27.98;6.97;;;15.70;99.90;;;15.14;100.00;100008.75;4137836;28;20030;-60
2024/04/06 07:53:54;;;;;;;24.70;5.07;;;15.70;99.90;;;15.17;100.00;100021.63;4136327;28;20490;-59
2024/04/06 07:55:55;;;;;;;26.58;8.43;;;15.70;99.90;;;15.14;100.00;100030.03;4152059;28;20025;-59
2024/04/06 07:57:56;;;;;;;25.42;6.35;;;15.70;99.90;;;15.14;100.00;100029.22;4152219;28;20029;-59
2024/04/06 07:59:58;;;;;;;30.77;6.65;;;15.60;99.90;;;15.12;100.00;100029.41;4152598;28;20025;-59
2024/04/06 08:01:59;;;;;;;23.85;7.88;;;15.60;99.90;;;15.12;100.00;100028.59;4163034;28;20025;-59
2024/04/06 08:03:59;;;;;;;24.40;6.88;;;15.60;99.90;;;15.12;100.00;100031.25;4136438;28;20029;-59
2024/04/06 08:06:01;;;;;;;27.08;6.80;;;15.60;99.90;;;15.11;100.00;100046.38;4136194;28;20098;-59
2024/04/06 08:08:03;;;;;;;19.75;5.53;;;15.60;99.90;;;15.12;100.00;100048.00;4136281;28;20034;-59
2024/04/06 08:10:19;;;;;;;35.03;6.72;;;15.60;99.90;;;15.13;100.00;100047.00;4136141;28;20065;-59
2024/04/06 08:12:19;;;;;;;23.88;7.07;;;15.60;99.90;;;15.10;100.00;100050.06;4153560;28;20030;-59
2024/04/06 08:14:20;;;;;;;26.92;7.35;;;15.60;99.90;;;15.11;100.00;100046.38;4137423;28;20512;-59
2024/04/06 08:16:21;;;;;;;26.30;6.70;;;15.60;99.90;;;15.12;100.00;100055.16;4153318;28;20091;-59
2024/04/06 08:18:22;;;;;;;24.67;5.93;;;15.60;99.90;;;15.10;100.00;100052.72;4152185;28;20113;-59
2024/04/06 08:20:23;;;;;;;24.73;6.13;;;15.60;99.90;;;15.08;100.00;100045.97;4152340;28;20029;-59
2024/04/06 08:22:23;;;;;;;24.75;6.75;;;15.60;99.90;;;15.10;100.00;100050.06;4150866;28;20030;-59